createdAt,value
2022-12-19T00:02:05.182Z,-7.29
2022-12-19T00:04:35.839Z,-7.37
2022-12-19T00:07:05.027Z,-7.39
2022-12-19T00:09:34.760Z,-7.21
2022-12-19T00:12:06.163Z,-7.08
2022-12-19T00:14:38.785Z,-7.13
2022-12-19T00:17:08.497Z,-7.12
2022-12-19T00:19:36.928Z,-7.13
2022-12-19T00:22:11.040Z,-7.10
2022-12-19T00:24:41.363Z,-7.00
2022-12-19T00:27:11.182Z,-7.07
2022-12-19T00:29:40.911Z,-6.92
2022-12-19T00:32:09.314Z,-6.88
2022-12-19T00:34:40.706Z,-6.94
2022-12-19T00:37:09.135Z,-6.95
2022-12-19T00:39:37.543Z,-6.91
2022-12-19T00:42:07.121Z,-6.88
2022-12-19T00:44:34.472Z,-6.89
2022-12-19T00:47:02.748Z,-6.91
2022-12-19T00:49:31.188Z,-6.96
2022-12-19T00:52:00.095Z,-6.85
2022-12-19T00:54:28.454Z,-6.91
2022-12-19T00:56:56.414Z,-6.81
2022-12-19T00:59:26.816Z,-6.84
2022-12-19T01:01:57.735Z,-6.79
2022-12-19T01:04:29.174Z,-6.80
2022-12-19T01:07:02.706Z,-6.60
2022-12-19T01:09:36.205Z,-6.60
2022-12-19T01:12:26.183Z,-6.43
2022-12-19T01:15:03.881Z,-6.52
2022-12-19T01:17:42.335Z,-6.61
2022-12-19T01:20:29.658Z,-6.42
2022-12-19T01:23:00.694Z,-6.56
2022-12-19T01:25:30.869Z,-6.48
2022-12-19T01:28:00.678Z,-6.56
2022-12-19T01:30:30.900Z,-6.76
2022-12-19T01:33:02.093Z,-6.69
2022-12-19T01:35:31.949Z,-6.68
2022-12-19T01:38:07.725Z,-6.69
2022-12-19T01:40:38.798Z,-6.57
2022-12-19T01:43:15.184Z,-6.51
2022-12-19T01:45:51.514Z,-6.51
2022-12-19T01:48:44.771Z,-6.54
2022-12-19T01:51:23.180Z,-6.50
2022-12-19T01:54:04.560Z,-6.45
2022-12-19T01:56:44.961Z,-6.60
2022-12-19T01:59:54.298Z,-6.63
2022-12-19T02:02:37.280Z,-6.69
2022-12-19T02:05:08.361Z,-6.64
2022-12-19T02:07:42.171Z,-6.27
2022-12-19T02:10:12.600Z,-6.24
2022-12-19T02:12:46.252Z,-6.46
2022-12-19T02:15:18.000Z,-6.48
2022-12-19T02:18:40.846Z,-6.54
2022-12-19T02:21:35.278Z,-6.50
2022-12-19T02:25:00.073Z,-6.49
2022-12-19T02:28:03.340Z,-6.39
2022-12-19T02:31:19.645Z,-6.62
2022-12-19T02:34:21.828Z,-6.74
2022-12-19T02:37:17.796Z,-6.52
2022-12-19T02:40:19.509Z,-6.49
2022-12-19T02:43:00.234Z,-6.60
2022-12-19T02:45:39.975Z,-6.61
2022-12-19T02:48:13.065Z,-6.73
2022-12-19T02:50:50.237Z,-6.58
2022-12-19T02:53:22.449Z,-6.45
2022-12-19T02:57:01.767Z,-6.54
2022-12-19T02:59:56.110Z,-6.68
2022-12-19T03:03:00.758Z,-6.65
2022-12-19T03:05:46.604Z,-6.58
2022-12-19T03:08:41.654Z,-6.53
2022-12-19T03:11:15.645Z,-6.40
2022-12-19T03:14:02.261Z,-6.52
2022-12-19T03:16:38.200Z,-6.55
2022-12-19T03:19:14.311Z,-6.37
2022-12-19T03:21:49.410Z,-6.45
2022-12-19T03:24:20.379Z,-6.41
2022-12-19T03:27:29.217Z,-6.45
2022-12-19T03:30:13.470Z,-6.38
2022-12-19T03:32:49.406Z,-6.44
2022-12-19T03:35:30.734Z,-6.38
2022-12-19T03:38:06.098Z,-6.41
2022-12-19T03:40:40.065Z,-6.33
2022-12-19T03:43:16.951Z,-6.39
2022-12-19T03:46:04.493Z,-6.38
2022-12-19T03:48:46.101Z,-6.35
2022-12-19T03:51:56.366Z,-6.17
2022-12-19T03:54:50.408Z,-6.10
2022-12-19T03:57:41.394Z,-6.06
2022-12-19T04:00:19.105Z,-6.26
2022-12-19T04:02:55.235Z,-6.30
2022-12-19T04:05:29.213Z,-6.15
2022-12-19T04:08:08.278Z,-6.23
2022-12-19T04:11:20.778Z,-6.19
2022-12-19T04:14:06.303Z,-6.05
2022-12-19T04:17:10.790Z,-6.21
2022-12-19T04:19:49.228Z,-6.32
2022-12-19T04:22:40.500Z,-6.26
2022-12-19T04:25:29.895Z,-6.24
2022-12-19T04:28:32.737Z,-6.00
2022-12-19T04:31:06.614Z,-5.95
2022-12-19T04:33:36.868Z,-6.07
2022-12-19T04:36:08.053Z,-6.01
2022-12-19T04:38:38.850Z,-6.04
2022-12-19T04:41:09.255Z,-6.12
2022-12-19T04:43:39.467Z,-5.93
2022-12-19T04:46:09.537Z,-6.09
2022-12-19T04:48:38.180Z,-6.21
2022-12-19T04:51:07.084Z,-6.28
2022-12-19T04:53:35.659Z,-6.36
2022-12-19T04:56:07.269Z,-6.27
2022-12-19T04:58:35.149Z,-6.11
2022-12-19T05:01:09.675Z,-6.20
2022-12-19T05:03:40.935Z,-6.10
2022-12-19T05:06:14.904Z,-6.17
2022-12-19T05:08:46.397Z,-5.95
2022-12-19T05:11:19.977Z,-5.92
2022-12-19T05:13:50.291Z,-6.15
2022-12-19T05:16:19.458Z,-6.21
2022-12-19T05:18:47.514Z,-6.23
2022-12-19T05:21:15.788Z,-6.28
2022-12-19T05:23:44.175Z,-6.33
2022-12-19T05:26:13.540Z,-6.33
2022-12-19T05:28:41.240Z,-6.18
2022-12-19T05:31:17.827Z,-6.15
2022-12-19T05:33:49.645Z,-5.94
2022-12-19T05:36:20.276Z,-5.86
2022-12-19T05:38:50.410Z,-5.78
2022-12-19T05:41:22.824Z,-5.72
2022-12-19T05:43:56.402Z,-5.74
2022-12-19T05:46:27.409Z,-5.63
2022-12-19T05:48:57.672Z,-5.73
2022-12-19T05:51:28.262Z,-5.78
2022-12-19T05:54:01.358Z,-5.55
2022-12-19T05:56:31.599Z,-5.47
2022-12-19T05:59:01.613Z,-5.34
2022-12-19T06:01:32.515Z,-5.49
2022-12-19T06:04:02.659Z,-5.40
2022-12-19T06:06:32.679Z,-5.35
2022-12-19T06:09:02.868Z,-5.40
2022-12-19T06:11:32.986Z,-5.42
2022-12-19T06:14:03.483Z,-5.53
2022-12-19T06:16:33.585Z,-5.21
2022-12-19T06:19:03.933Z,-5.08
2022-12-19T06:21:34.217Z,-5.15
2022-12-19T06:24:04.883Z,-5.21
2022-12-19T06:26:34.864Z,-5.14
2022-12-19T06:29:04.957Z,-5.18
2022-12-19T06:31:35.066Z,-5.11
2022-12-19T06:34:05.495Z,-5.25
2022-12-19T06:36:35.757Z,-5.02
2022-12-19T06:39:05.940Z,-4.86
2022-12-19T06:41:54.919Z,-4.80
2022-12-19T06:44:25.034Z,-4.88
2022-12-19T06:46:55.190Z,-4.87
2022-12-19T06:49:25.370Z,-4.71
2022-12-19T06:51:55.393Z,-4.80
2022-12-19T06:54:25.424Z,-4.87
2022-12-19T06:56:55.472Z,-4.64
2022-12-19T06:59:25.478Z,-4.85
2022-12-19T07:02:04.669Z,-4.94
2022-12-19T07:05:00.961Z,-4.82
2022-12-19T07:07:31.340Z,-4.75
2022-12-19T07:10:01.525Z,-4.76
2022-12-19T07:12:31.959Z,-4.67
2022-12-19T07:14:59.984Z,-4.63
2022-12-19T07:17:30.490Z,-4.72
2022-12-19T07:20:00.190Z,-4.59
2022-12-19T07:22:36.413Z,-4.64
2022-12-19T07:25:06.720Z,-4.61
2022-12-19T07:27:37.291Z,-4.22
2022-12-19T07:30:08.129Z,-4.07
2022-12-19T07:32:39.562Z,-4.16
2022-12-19T07:35:10.199Z,-4.36
2022-12-19T07:37:40.421Z,-4.36
2022-12-19T07:40:11.602Z,-4.27
2022-12-19T07:42:41.707Z,-4.07
2022-12-19T07:45:12.705Z,-3.95
2022-12-19T07:47:42.760Z,-3.90
2022-12-19T07:50:13.517Z,-4.00
2022-12-19T07:52:43.590Z,-4.09
2022-12-19T07:55:14.114Z,-3.96
2022-12-19T07:57:44.345Z,-3.98
2022-12-19T08:00:15.036Z,-3.86
2022-12-19T08:02:46.804Z,-3.86
2022-12-19T08:05:17.440Z,-3.85
2022-12-19T08:07:47.473Z,-3.93
2022-12-19T08:10:17.863Z,-3.71
2022-12-19T08:12:48.007Z,-3.64
2022-12-19T08:15:18.753Z,-3.41
2022-12-19T08:17:48.835Z,-3.39
2022-12-19T08:20:19.463Z,-3.43
2022-12-19T08:22:49.503Z,-3.45
2022-12-19T08:25:19.571Z,-3.29
2022-12-19T08:27:49.601Z,-3.08
2022-12-19T08:30:19.629Z,-3.12
2022-12-19T08:32:48.125Z,-3.09
2022-12-19T08:35:17.764Z,-2.98
2022-12-19T08:37:44.904Z,-3.25
2022-12-19T08:40:14.817Z,-3.18
2022-12-19T08:42:44.879Z,-3.24
2022-12-19T08:45:15.132Z,-3.00
2022-12-19T08:47:45.905Z,-2.85
2022-12-19T08:50:15.449Z,-3.02
2022-12-19T08:52:45.757Z,-2.99
2022-12-19T08:55:15.875Z,-3.00
2022-12-19T08:57:45.903Z,-2.94
2022-12-19T09:00:17.206Z,-2.98
2022-12-19T09:02:46.531Z,-2.87
2022-12-19T09:06:02.453Z,-2.60
2022-12-19T09:08:07.473Z,-2.80
2022-12-19T09:10:38.922Z,-2.54
2022-12-19T09:13:08.918Z,-2.61
2022-12-19T09:15:39.276Z,-2.34
2022-12-19T09:18:10.442Z,-2.49
2022-12-19T09:20:38.927Z,-2.32
2022-12-19T09:23:07.377Z,-2.32
2022-12-19T09:25:35.841Z,-2.25
2022-12-19T09:31:10.831Z,-2.19
2022-12-19T09:33:43.678Z,-1.94
2022-12-19T09:36:25.007Z,-1.94
2022-12-19T09:38:58.754Z,-1.88
2022-12-19T09:42:23.222Z,-1.66
2022-12-19T09:45:49.861Z,-1.78
2022-12-19T09:48:23.967Z,-1.61
2022-12-19T09:51:34.522Z,-1.69
2022-12-19T09:54:33.570Z,-1.65
2022-12-19T09:57:19.169Z,-1.65
2022-12-19T10:00:06.154Z,-1.51
2022-12-19T10:02:56.159Z,-1.37
2022-12-19T10:07:11.330Z,-1.25
2022-12-19T10:10:03.987Z,-1.49
2022-12-19T10:12:51.772Z,-1.23
2022-12-19T10:16:04.925Z,-1.33
2022-12-19T10:18:56.786Z,-1.29
2022-12-19T10:22:16.333Z,-1.08
2022-12-19T10:25:20.413Z,-1.23
2022-12-19T10:28:05.274Z,-1.16
2022-12-19T10:31:01.475Z,-1.01
2022-12-19T10:33:50.135Z,-0.94
2022-12-19T10:36:36.233Z,-0.88
2022-12-19T10:39:46.149Z,-0.71
2022-12-19T10:42:51.209Z,-0.67
2022-12-19T10:45:33.192Z,-0.68
2022-12-19T10:48:12.060Z,-0.76
2022-12-19T10:50:42.148Z,-0.84
2022-12-19T10:53:15.034Z,-0.65
2022-12-19T10:55:52.055Z,-0.54
2022-12-19T10:58:36.727Z,-0.51
2022-12-19T11:01:17.529Z,-0.34
2022-12-19T11:04:15.488Z,-0.36
2022-12-19T11:06:52.945Z,-0.53
2022-12-19T11:09:41.017Z,-0.35
2022-12-19T11:17:51.320Z,-0.21
2022-12-19T11:18:56.686Z,-0.21
2022-12-19T11:28:10.100Z,-0.12
2022-12-19T11:29:36.497Z,-0.31
2022-12-19T11:29:43.196Z,-0.03
2022-12-19T11:30:06.588Z,-0.22
2022-12-19T11:33:33.560Z,-0.24
2022-12-19T11:36:06.662Z,-0.17
2022-12-19T11:38:54.228Z,-0.16
2022-12-19T11:41:43.752Z,-0.16
2022-12-19T11:44:44.399Z,-0.22
2022-12-19T11:47:48.408Z,-0.23
2022-12-19T11:50:32.222Z,-0.35
2022-12-19T11:53:23.412Z,-0.40
2022-12-19T11:56:17.342Z,-0.23
2022-12-19T11:58:59.066Z,-0.15
2022-12-19T12:01:46.221Z,-0.23
2022-12-19T12:05:37.878Z,-0.13
2022-12-19T12:10:38.491Z,-0.31
2022-12-19T12:16:36.197Z,-0.47
2022-12-19T12:25:07.026Z,-0.44
2022-12-19T12:30:46.279Z,-0.24
2022-12-19T12:31:21.097Z,-0.14
2022-12-19T12:31:44.725Z,-0.31
2022-12-19T12:31:51.535Z,-0.30
2022-12-19T12:35:54.535Z,-0.19
2022-12-19T12:39:40.304Z,0.06
2022-12-19T12:43:14.170Z,-0.11
2022-12-19T12:45:45.748Z,0.11
2022-12-19T12:48:40.401Z,-0.05
2022-12-19T12:51:12.736Z,0.02
2022-12-19T12:53:49.370Z,-0.16
2022-12-19T12:56:21.144Z,-0.07
2022-12-19T12:58:52.706Z,-0.16
2022-12-19T13:01:39.408Z,-0.22
2022-12-19T13:04:12.459Z,0.01
2022-12-19T13:07:42.076Z,-0.13
2022-12-19T13:10:30.894Z,-0.12
2022-12-19T13:13:14.098Z,-0.08
2022-12-19T13:15:46.663Z,-0.01
2022-12-19T13:18:39.909Z,-0.17
2022-12-19T13:21:10.255Z,-0.11
2022-12-19T13:23:46.868Z,0.05
2022-12-19T13:26:49.601Z,0.04
2022-12-19T13:29:32.666Z,0.14
2022-12-19T13:32:16.534Z,0.05
2022-12-19T13:35:44.201Z,0.10
2022-12-19T13:39:54.778Z,0.12
2022-12-19T13:41:25.419Z,0.17
2022-12-19T13:44:00.117Z,0.09
2022-12-19T13:46:46.111Z,0.06
2022-12-19T13:49:34.574Z,0.05
2022-12-19T13:52:07.120Z,0.00
2022-12-19T13:54:55.777Z,0.08
2022-12-19T13:57:31.489Z,0.15
2022-12-19T14:00:16.477Z,0.15
2022-12-19T14:03:00.536Z,0.01
2022-12-19T14:06:16.421Z,0.13
2022-12-19T14:08:30.725Z,-0.01
2022-12-19T14:11:37.202Z,0.27
2022-12-19T14:14:25.506Z,0.34
2022-12-19T14:17:21.807Z,0.24
2022-12-19T14:19:53.528Z,0.29
2022-12-19T14:22:43.561Z,0.26
2022-12-19T14:28:18.191Z,0.24
2022-12-19T14:28:29.251Z,0.25
2022-12-19T14:31:11.492Z,0.25
2022-12-19T14:34:11.650Z,0.17
2022-12-19T14:36:55.843Z,0.37
2022-12-19T14:39:35.499Z,0.53
2022-12-19T14:43:55.555Z,0.43
2022-12-19T14:52:34.174Z,0.51
2022-12-19T14:54:05.640Z,0.54
2022-12-19T14:54:28.660Z,0.56
2022-12-19T14:58:50.927Z,0.54
2022-12-19T15:01:07.802Z,0.71
2022-12-19T15:04:52.257Z,0.74
2022-12-19T15:07:08.952Z,0.59
2022-12-19T15:11:08.036Z,0.70
2022-12-19T15:14:48.943Z,0.81
2022-12-19T15:16:31.120Z,0.90
2022-12-19T15:19:02.889Z,0.76
2022-12-19T15:21:32.130Z,0.68
2022-12-19T15:23:59.537Z,0.74
2022-12-19T15:26:34.250Z,0.79
2022-12-19T15:29:14.077Z,0.95
2022-12-19T15:31:48.256Z,0.85
2022-12-19T15:34:37.248Z,0.77
2022-12-19T15:37:17.248Z,0.76
2022-12-19T15:39:46.961Z,0.97
2022-12-19T15:42:27.279Z,1.00
2022-12-19T15:44:59.907Z,0.95
2022-12-19T15:47:36.557Z,0.88
2022-12-19T15:50:21.624Z,0.97
2022-12-19T15:52:57.820Z,0.93
2022-12-19T15:55:31.417Z,0.98
2022-12-19T15:58:06.923Z,0.95
2022-12-19T16:00:37.484Z,1.01
2022-12-19T16:03:23.399Z,1.13
2022-12-19T16:05:56.543Z,0.94
2022-12-19T16:08:28.256Z,0.96
2022-12-19T16:11:01.711Z,1.10
2022-12-19T16:13:35.584Z,1.07
2022-12-19T16:16:13.040Z,1.19
2022-12-19T16:18:45.797Z,1.03
2022-12-19T16:21:27.520Z,1.10
2022-12-19T16:24:11.442Z,1.21
2022-12-19T16:26:41.631Z,1.32
2022-12-19T16:29:28.043Z,1.21
2022-12-19T16:31:58.301Z,1.41
2022-12-19T16:34:29.395Z,1.28
2022-12-19T16:36:59.457Z,1.21
2022-12-19T16:39:29.487Z,1.42
2022-12-19T16:41:59.896Z,1.30
2022-12-19T16:44:35.937Z,1.26
2022-12-19T16:47:17.663Z,1.35
2022-12-19T16:49:47.790Z,1.34
2022-12-19T16:52:17.592Z,1.42
2022-12-19T16:54:47.541Z,1.45
2022-12-19T16:57:22.581Z,1.45
2022-12-19T16:59:52.656Z,1.54
2022-12-19T17:02:49.377Z,1.38
2022-12-19T17:05:29.432Z,1.62
2022-12-19T17:08:00.317Z,1.47
2022-12-19T17:10:33.765Z,1.51
2022-12-19T17:13:04.406Z,1.45
2022-12-19T17:15:38.944Z,1.59
2022-12-19T17:18:27.182Z,1.65
2022-12-19T17:20:55.191Z,1.66
2022-12-19T17:23:29.098Z,1.73
2022-12-19T17:26:00.353Z,1.65
2022-12-19T17:28:29.948Z,1.65
2022-12-19T17:31:12.352Z,1.73
2022-12-19T17:33:42.632Z,1.65
2022-12-19T17:36:19.890Z,1.65
2022-12-19T17:38:54.649Z,1.74
2022-12-19T17:41:25.656Z,1.70
2022-12-19T17:43:55.818Z,1.85
2022-12-19T17:46:26.241Z,1.95
2022-12-19T17:48:54.426Z,1.94
2022-12-19T17:51:24.659Z,1.83
2022-12-19T17:53:54.054Z,1.72
2022-12-19T17:56:23.815Z,1.77
2022-12-19T17:58:55.778Z,1.78
2022-12-19T18:01:25.188Z,1.97
2022-12-19T18:03:56.373Z,1.88
2022-12-19T18:06:25.618Z,1.85
2022-12-19T18:08:55.727Z,1.77
2022-12-19T18:11:26.547Z,1.84
2022-12-19T18:13:56.493Z,1.78
2022-12-19T18:16:30.996Z,1.96
2022-12-19T18:19:00.900Z,1.92
2022-12-19T18:21:28.054Z,1.99
2022-12-19T18:23:58.214Z,2.01
2022-12-19T18:26:28.202Z,2.05
2022-12-19T18:28:58.017Z,2.29
2022-12-19T18:31:28.168Z,2.19
2022-12-19T18:34:07.146Z,2.37
2022-12-19T18:36:42.934Z,2.33
2022-12-19T18:39:24.112Z,2.14
2022-12-19T18:41:54.226Z,2.27
2022-12-19T18:44:24.423Z,2.23
2022-12-19T18:46:54.612Z,2.10
2022-12-19T18:49:24.511Z,2.09
2022-12-19T18:51:54.223Z,2.24
2022-12-19T18:54:24.146Z,2.34
2022-12-19T18:56:53.959Z,2.33
2022-12-19T18:59:23.701Z,2.19
2022-12-19T19:01:53.038Z,2.18
2022-12-19T19:04:22.210Z,2.19
2022-12-19T19:06:53.637Z,2.20
2022-12-19T19:09:23.045Z,2.22
2022-12-19T19:11:53.852Z,2.33
2022-12-19T19:14:23.993Z,2.22
2022-12-19T19:16:54.061Z,2.43
2022-12-19T19:19:24.449Z,2.31
2022-12-19T19:21:54.592Z,2.34
2022-12-19T19:24:24.784Z,2.20
2022-12-19T19:26:54.563Z,2.24
2022-12-19T19:29:24.351Z,2.13
2022-12-19T19:31:54.318Z,2.12
2022-12-19T19:34:35.345Z,2.15
2022-12-19T19:37:13.864Z,2.10
2022-12-19T19:39:41.987Z,2.21
2022-12-19T19:42:14.699Z,2.29
2022-12-19T19:44:42.520Z,2.24
2022-12-19T19:47:14.142Z,2.12
2022-12-19T19:49:44.010Z,2.32
2022-12-19T19:52:13.728Z,2.14
2022-12-19T19:54:43.460Z,2.26
2022-12-19T19:57:13.576Z,2.12
2022-12-19T19:59:43.200Z,2.19
2022-12-19T20:02:13.263Z,2.12
2022-12-19T20:04:46.995Z,2.16
2022-12-19T20:07:17.415Z,2.19
2022-12-19T20:09:47.475Z,2.19
2022-12-19T20:12:17.412Z,2.15
2022-12-19T20:14:48.070Z,2.13
2022-12-19T20:17:18.221Z,2.17
2022-12-19T20:19:47.663Z,2.23
2022-12-19T20:22:17.941Z,2.06
2022-12-19T20:24:47.940Z,2.18
2022-12-19T20:27:17.652Z,2.34
2022-12-19T20:29:47.323Z,2.21
2022-12-19T20:32:17.092Z,2.18
2022-12-19T20:34:46.894Z,2.17
2022-12-19T20:37:16.627Z,2.03
2022-12-19T20:39:46.450Z,2.36
2022-12-19T20:42:16.246Z,2.21
2022-12-19T20:44:46.015Z,2.05
2022-12-19T20:47:15.863Z,2.12
2022-12-19T20:49:45.614Z,2.25
2022-12-19T20:52:15.707Z,2.16
2022-12-19T20:54:45.763Z,2.06
2022-12-19T20:57:15.419Z,2.08
2022-12-19T20:59:45.538Z,1.93
2022-12-19T21:02:15.228Z,1.94
2022-12-19T21:04:45.186Z,1.87
2022-12-19T21:07:15.029Z,1.81
2022-12-19T21:09:45.280Z,1.81
2022-12-19T21:12:16.088Z,1.82
2022-12-19T21:14:45.849Z,1.68
2022-12-19T21:17:15.791Z,1.81
2022-12-19T21:19:45.947Z,1.99
2022-12-19T21:22:16.166Z,1.80
2022-12-19T21:24:46.074Z,1.98
2022-12-19T21:27:16.075Z,1.96
2022-12-19T21:29:45.939Z,1.79
2022-12-19T21:32:18.983Z,1.75
2022-12-19T21:34:49.382Z,1.75
2022-12-19T21:37:19.305Z,1.67
2022-12-19T21:39:49.446Z,1.61
2022-12-19T21:42:19.820Z,1.40
2022-12-19T21:44:49.422Z,1.28
2022-12-19T21:47:19.125Z,1.51
2022-12-19T21:49:47.588Z,1.58
2022-12-19T21:52:16.054Z,1.60
2022-12-19T21:54:44.495Z,1.69
2022-12-19T21:57:12.867Z,1.62
2022-12-19T21:59:41.375Z,1.39
2022-12-19T22:02:11.326Z,1.35
2022-12-19T22:04:41.377Z,1.42
2022-12-19T22:07:09.546Z,1.59
2022-12-19T22:09:38.026Z,1.61
2022-12-19T22:12:11.525Z,1.64
2022-12-19T22:14:39.962Z,1.47
2022-12-19T22:17:09.899Z,1.38
2022-12-19T22:19:38.449Z,1.42
2022-12-19T22:22:07.246Z,1.51
2022-12-19T22:24:35.226Z,1.50
2022-12-19T22:27:03.465Z,1.61
2022-12-19T22:29:36.485Z,1.71
2022-12-19T22:32:06.748Z,1.58
2022-12-19T22:34:36.696Z,1.44
2022-12-19T22:37:06.406Z,1.48
2022-12-19T22:39:36.271Z,1.50
2022-12-19T22:42:07.289Z,1.39
2022-12-19T22:44:37.554Z,1.39
2022-12-19T22:47:07.331Z,1.37
2022-12-19T22:49:37.347Z,1.35
2022-12-19T22:52:07.085Z,1.35
2022-12-19T22:54:36.923Z,1.38
2022-12-19T22:57:06.852Z,1.40
2022-12-19T22:59:36.610Z,1.49
2022-12-19T23:02:06.533Z,1.45
2022-12-19T23:04:36.394Z,1.52
2022-12-19T23:07:04.781Z,1.68
2022-12-19T23:09:33.120Z,1.59
2022-12-19T23:12:01.651Z,1.61
2022-12-19T23:14:30.092Z,1.57
2022-12-19T23:16:58.421Z,1.66
2022-12-19T23:19:26.877Z,1.65
2022-12-19T23:21:55.822Z,1.59
2022-12-19T23:24:26.260Z,1.66
2022-12-19T23:26:54.471Z,1.54
2022-12-19T23:29:23.126Z,1.49
2022-12-19T23:31:51.401Z,1.46
2022-12-19T23:34:19.870Z,1.54
2022-12-19T23:39:36.584Z,1.58
2022-12-19T23:42:08.968Z,1.89
2022-12-19T23:44:39.628Z,1.83
2022-12-19T23:47:09.344Z,1.77
2022-12-19T23:49:39.147Z,1.96
2022-12-19T23:52:09.423Z,1.96
2022-12-19T23:54:38.709Z,2.02
2022-12-19T23:57:08.403Z,2.10
2022-12-19T23:59:38.169Z,2.11
